sensor_id;sensor_type;location;lat;lon;timestamp;P1;durP1;ratioP1;P2;durP2;ratioP2
37517;SDS011;23366;52.498;13.446;2023-09-07T00:00:18;4.07;;;2.78;;
37517;SDS011;23366;52.498;13.446;2023-09-07T00:02:43;4.70;;;2.47;;
37517;SDS011;23366;52.498;13.446;2023-09-07T00:05:09;4.10;;;2.60;;
37517;SDS011;23366;52.498;13.446;2023-09-07T00:07:35;5.60;;;3.22;;
37517;SDS011;23366;52.498;13.446;2023-09-07T00:10:01;4.18;;;3.08;;
37517;SDS011;23366;52.498;13.446;2023-09-07T00:12:28;4.75;;;2.75;;
37517;SDS011;23366;52.498;13.446;2023-09-07T00:14:53;4.78;;;2.78;;
37517;SDS011;23366;52.498;13.446;2023-09-07T00:17:19;6.82;;;3.30;;
37517;SDS011;23366;52.498;13.446;2023-09-07T00:19:45;4.18;;;3.20;;
37517;SDS011;23366;52.498;13.446;2023-09-07T00:22:14;3.55;;;2.80;;
37517;SDS011;23366;52.498;13.446;2023-09-07T00:24:39;4.30;;;2.70;;
37517;SDS011;23366;52.498;13.446;2023-09-07T00:27:05;4.18;;;2.55;;
37517;SDS011;23366;52.498;13.446;2023-09-07T00:29:32;3.40;;;2.60;;
37517;SDS011;23366;52.498;13.446;2023-09-07T00:31:59;5.18;;;2.70;;
37517;SDS011;23366;52.498;13.446;2023-09-07T00:34:24;6.28;;;3.22;;
37517;SDS011;23366;52.498;13.446;2023-09-07T00:36:50;3.78;;;2.90;;
37517;SDS011;23366;52.498;13.446;2023-09-07T00:39:15;3.63;;;2.58;;
37517;SDS011;23366;52.498;13.446;2023-09-07T00:41:41;3.78;;;2.90;;
37517;SDS011;23366;52.498;13.446;2023-09-07T00:44:06;2.97;;;2.70;;
37517;SDS011;23366;52.498;13.446;2023-09-07T00:46:32;5.57;;;3.08;;
37517;SDS011;23366;52.498;13.446;2023-09-07T00:48:58;3.40;;;2.45;;
37517;SDS011;23366;52.498;13.446;2023-09-07T00:51:23;3.40;;;2.42;;
37517;SDS011;23366;52.498;13.446;2023-09-07T00:53:49;4.90;;;3.05;;
37517;SDS011;23366;52.498;13.446;2023-09-07T00:56:15;6.22;;;3.50;;
37517;SDS011;23366;52.498;13.446;2023-09-07T00:58:41;6.20;;;3.10;;
37517;SDS011;23366;52.498;13.446;2023-09-07T01:01:08;3.55;;;2.63;;
37517;SDS011;23366;52.498;13.446;2023-09-07T01:03:33;4.43;;;3.53;;
37517;SDS011;23366;52.498;13.446;2023-09-07T01:06:03;3.30;;;3.00;;
37517;SDS011;23366;52.498;13.446;2023-09-07T01:08:39;3.58;;;2.88;;
37517;SDS011;23366;52.498;13.446;2023-09-07T01:11:12;3.67;;;2.53;;
37517;SDS011;23366;52.498;13.446;2023-09-07T01:13:42;5.22;;;2.92;;
37517;SDS011;23366;52.498;13.446;2023-09-07T01:16:07;3.78;;;3.05;;
37517;SDS011;23366;52.498;13.446;2023-09-07T01:18:35;4.40;;;2.95;;
37517;SDS011;23366;52.498;13.446;2023-09-07T01:21:02;5.82;;;2.88;;
37517;SDS011;23366;52.498;13.446;2023-09-07T01:23:30;4.55;;;3.40;;
37517;SDS011;23366;52.498;13.446;2023-09-07T01:25:56;7.38;;;3.70;;
37517;SDS011;23366;52.498;13.446;2023-09-07T01:28:23;3.65;;;2.80;;
37517;SDS011;23366;52.498;13.446;2023-09-07T01:30:48;7.60;;;3.70;;
37517;SDS011;23366;52.498;13.446;2023-09-07T01:33:17;4.30;;;3.05;;
37517;SDS011;23366;52.498;13.446;2023-09-07T01:35:42;4.63;;;2.75;;
37517;SDS011;23366;52.498;13.446;2023-09-07T01:38:08;4.03;;;3.08;;
37517;SDS011;23366;52.498;13.446;2023-09-07T01:40:34;3.47;;;2.90;;
37517;SDS011;23366;52.498;13.446;2023-09-07T01:42:59;5.07;;;2.88;;
37517;SDS011;23366;52.498;13.446;2023-09-07T01:45:25;4.28;;;3.28;;
37517;SDS011;23366;52.498;13.446;2023-09-07T01:47:50;4.38;;;3.22;;
37517;SDS011;23366;52.498;13.446;2023-09-07T01:50:17;3.92;;;3.03;;
37517;SDS011;23366;52.498;13.446;2023-09-07T01:52:42;5.53;;;4.53;;
37517;SDS011;23366;52.498;13.446;2023-09-07T01:55:10;4.15;;;3.20;;
37517;SDS011;23366;52.498;13.446;2023-09-07T01:57:35;4.45;;;3.47;;
37517;SDS011;23366;52.498;13.446;2023-09-07T02:00:01;3.67;;;2.88;;
37517;SDS011;23366;52.498;13.446;2023-09-07T02:02:29;4.60;;;3.35;;
37517;SDS011;23366;52.498;13.446;2023-09-07T02:04:55;6.25;;;3.15;;
37517;SDS011;23366;52.498;13.446;2023-09-07T02:07:20;4.68;;;3.38;;
37517;SDS011;23366;52.498;13.446;2023-09-07T02:09:46;5.35;;;3.22;;
37517;SDS011;23366;52.498;13.446;2023-09-07T02:12:11;4.90;;;3.30;;
37517;SDS011;23366;52.498;13.446;2023-09-07T02:14:37;5.30;;;3.70;;
37517;SDS011;23366;52.498;13.446;2023-09-07T02:17:02;3.20;;;2.50;;
37517;SDS011;23366;52.498;13.446;2023-09-07T02:19:28;4.65;;;3.05;;
37517;SDS011;23366;52.498;13.446;2023-09-07T02:21:53;5.43;;;3.88;;
37517;SDS011;23366;52.498;13.446;2023-09-07T02:24:19;5.38;;;3.65;;
37517;SDS011;23366;52.498;13.446;2023-09-07T02:26:44;3.50;;;2.90;;
37517;SDS011;23366;52.498;13.446;2023-09-07T02:29:13;5.43;;;3.88;;
37517;SDS011;23366;52.498;13.446;2023-09-07T02:31:39;4.78;;;3.05;;
37517;SDS011;23366;52.498;13.446;2023-09-07T02:34:05;5.82;;;3.10;;
37517;SDS011;23366;52.498;13.446;2023-09-07T02:36:31;5.28;;;3.63;;
37517;SDS011;23366;52.498;13.446;2023-09-07T02:38:57;4.93;;;3.40;;
37517;SDS011;23366;52.498;13.446;2023-09-07T02:41:22;5.07;;;3.25;;
37517;SDS011;23366;52.498;13.446;2023-09-07T02:43:48;2.88;;;2.53;;
37517;SDS011;23366;52.498;13.446;2023-09-07T02:46:13;4.97;;;3.13;;
37517;SDS011;23366;52.498;13.446;2023-09-07T02:48:39;4.32;;;2.80;;
37517;SDS011;23366;52.498;13.446;2023-09-07T02:51:04;5.00;;;3.30;;
37517;SDS011;23366;52.498;13.446;2023-09-07T02:53:30;5.43;;;3.38;;
37517;SDS011;23366;52.498;13.446;2023-09-07T02:55:55;4.85;;;2.75;;
37517;SDS011;23366;52.498;13.446;2023-09-07T02:58:21;6.40;;;3.72;;
37517;SDS011;23366;52.498;13.446;2023-09-07T03:00:47;3.92;;;3.35;;
37517;SDS011;23366;52.498;13.446;2023-09-07T03:03:13;6.63;;;3.53;;
37517;SDS011;23366;52.498;13.446;2023-09-07T03:05:39;4.65;;;3.28;;
37517;SDS011;23366;52.498;13.446;2023-09-07T03:08:05;5.10;;;3.70;;
37517;SDS011;23366;52.498;13.446;2023-09-07T03:10:31;4.03;;;3.00;;
37517;SDS011;23366;52.498;13.446;2023-09-07T03:12:57;3.88;;;2.67;;
37517;SDS011;23366;52.498;13.446;2023-09-07T03:15:23;4.63;;;3.00;;
37517;SDS011;23366;52.498;13.446;2023-09-07T03:17:48;5.15;;;3.10;;
37517;SDS011;23366;52.498;13.446;2023-09-07T03:20:14;5.78;;;3.10;;
37517;SDS011;23366;52.498;13.446;2023-09-07T03:22:46;8.95;;;4.07;;
37517;SDS011;23366;52.498;13.446;2023-09-07T03:25:12;3.25;;;2.75;;
37517;SDS011;23366;52.498;13.446;2023-09-07T03:27:38;6.00;;;3.97;;
37517;SDS011;23366;52.498;13.446;2023-09-07T03:30:04;5.10;;;4.35;;
37517;SDS011;23366;52.498;13.446;2023-09-07T03:32:30;4.15;;;3.40;;
37517;SDS011;23366;52.498;13.446;2023-09-07T03:35:02;4.90;;;3.92;;
37517;SDS011;23366;52.498;13.446;2023-09-07T03:37:29;5.13;;;3.38;;
37517;SDS011;23366;52.498;13.446;2023-09-07T03:39:55;3.80;;;3.17;;
37517;SDS011;23366;52.498;13.446;2023-09-07T03:42:21;5.25;;;3.50;;
37517;SDS011;23366;52.498;13.446;2023-09-07T03:44:47;4.47;;;3.63;;
37517;SDS011;23366;52.498;13.446;2023-09-07T03:47:13;5.15;;;3.53;;
37517;SDS011;23366;52.498;13.446;2023-09-07T03:49:39;4.55;;;3.25;;
37517;SDS011;23366;52.498;13.446;2023-09-07T03:52:04;5.68;;;3.83;;
37517;SDS011;23366;52.498;13.446;2023-09-07T03:54:30;4.75;;;3.33;;
37517;SDS011;23366;52.498;13.446;2023-09-07T03:56:56;2.97;;;2.72;;
37517;SDS011;23366;52.498;13.446;2023-09-07T03:59:22;5.70;;;3.95;;
37517;SDS011;23366;52.498;13.446;2023-09-07T04:01:48;6.65;;;4.45;;
37517;SDS011;23366;52.498;13.446;2023-09-07T04:04:13;11.65;;;3.05;;
37517;SDS011;23366;52.498;13.446;2023-09-07T04:06:39;6.72;;;4.13;;
37517;SDS011;23366;52.498;13.446;2023-09-07T04:09:04;7.95;;;4.25;;
37517;SDS011;23366;52.498;13.446;2023-09-07T04:11:30;4.95;;;4.18;;
37517;SDS011;23366;52.498;13.446;2023-09-07T04:13:55;6.05;;;3.75;;
37517;SDS011;23366;52.498;13.446;2023-09-07T04:16:21;8.00;;;4.60;;
37517;SDS011;23366;52.498;13.446;2023-09-07T04:18:46;4.25;;;3.58;;
37517;SDS011;23366;52.498;13.446;2023-09-07T04:21:12;7.28;;;4.15;;
37517;SDS011;23366;52.498;13.446;2023-09-07T04:23:37;6.90;;;4.10;;
37517;SDS011;23366;52.498;13.446;2023-09-07T04:26:05;8.45;;;3.80;;
37517;SDS011;23366;52.498;13.446;2023-09-07T04:28:34;6.47;;;3.95;;
37517;SDS011;23366;52.498;13.446;2023-09-07T04:31:00;5.47;;;3.70;;
37517;SDS011;23366;52.498;13.446;2023-09-07T04:33:26;5.78;;;3.53;;
37517;SDS011;23366;52.498;13.446;2023-09-07T04:35:55;4.63;;;3.50;;
37517;SDS011;23366;52.498;13.446;2023-09-07T04:38:20;5.65;;;3.58;;
37517;SDS011;23366;52.498;13.446;2023-09-07T04:40:46;7.18;;;4.15;;
37517;SDS011;23366;52.498;13.446;2023-09-07T04:43:11;7.65;;;4.35;;
37517;SDS011;23366;52.498;13.446;2023-09-07T04:45:37;4.65;;;3.08;;
37517;SDS011;23366;52.498;13.446;2023-09-07T04:48:11;5.53;;;3.92;;
37517;SDS011;23366;52.498;13.446;2023-09-07T04:50:37;6.32;;;4.22;;
37517;SDS011;23366;52.498;13.446;2023-09-07T04:53:02;5.43;;;3.80;;
37517;SDS011;23366;52.498;13.446;2023-09-07T04:55:28;7.25;;;3.85;;
37517;SDS011;23366;52.498;13.446;2023-09-07T04:57:53;6.90;;;3.33;;
37517;SDS011;23366;52.498;13.446;2023-09-07T05:00:19;6.95;;;4.10;;
37517;SDS011;23366;52.498;13.446;2023-09-07T05:02:44;5.05;;;3.40;;
37517;SDS011;23366;52.498;13.446;2023-09-07T05:05:11;4.90;;;3.50;;
37517;SDS011;23366;52.498;13.446;2023-09-07T05:07:36;35.58;;;3.97;;
37517;SDS011;23366;52.498;13.446;2023-09-07T05:10:02;4.78;;;3.72;;
37517;SDS011;23366;52.498;13.446;2023-09-07T05:12:28;4.75;;;3.92;;
37517;SDS011;23366;52.498;13.446;2023-09-07T05:14:53;6.10;;;3.10;;
37517;SDS011;23366;52.498;13.446;2023-09-07T05:17:18;3.88;;;3.30;;
37517;SDS011;23366;52.498;13.446;2023-09-07T05:19:44;4.38;;;3.33;;
37517;SDS011;23366;52.498;13.446;2023-09-07T05:22:09;7.90;;;3.92;;
37517;SDS011;23366;52.498;13.446;2023-09-07T05:24:37;4.05;;;3.60;;
37517;SDS011;23366;52.498;13.446;2023-09-07T05:27:03;5.15;;;3.42;;
37517;SDS011;23366;52.498;13.446;2023-09-07T05:29:29;4.57;;;3.13;;
37517;SDS011;23366;52.498;13.446;2023-09-07T05:31:54;4.13;;;2.85;;
37517;SDS011;23366;52.498;13.446;2023-09-07T05:34:20;5.18;;;3.25;;
37517;SDS011;23366;52.498;13.446;2023-09-07T05:36:45;6.32;;;3.72;;
37517;SDS011;23366;52.498;13.446;2023-09-07T05:39:12;4.63;;;3.50;;
37517;SDS011;23366;52.498;13.446;2023-09-07T05:41:38;4.82;;;3.28;;
37517;SDS011;23366;52.498;13.446;2023-09-07T05:44:03;4.95;;;3.90;;
37517;SDS011;23366;52.498;13.446;2023-09-07T05:46:29;4.47;;;2.35;;
37517;SDS011;23366;52.498;13.446;2023-09-07T05:48:55;4.13;;;2.95;;
37517;SDS011;23366;52.498;13.446;2023-09-07T05:51:20;4.38;;;3.13;;
37517;SDS011;23366;52.498;13.446;2023-09-07T05:53:45;4.90;;;3.05;;
37517;SDS011;23366;52.498;13.446;2023-09-07T05:56:11;3.90;;;2.45;;
37517;SDS011;23366;52.498;13.446;2023-09-07T05:58:36;4.32;;;2.50;;
37517;SDS011;23366;52.498;13.446;2023-09-07T06:01:02;4.25;;;3.08;;
37517;SDS011;23366;52.498;13.446;2023-09-07T06:03:27;4.13;;;2.60;;
37517;SDS011;23366;52.498;13.446;2023-09-07T06:05:53;6.10;;;2.78;;
37517;SDS011;23366;52.498;13.446;2023-09-07T06:08:18;3.97;;;2.25;;
37517;SDS011;23366;52.498;13.446;2023-09-07T06:10:44;6.78;;;3.50;;
37517;SDS011;23366;52.498;13.446;2023-09-07T06:13:09;7.38;;;3.20;;
37517;SDS011;23366;52.498;13.446;2023-09-07T06:15:35;3.85;;;2.55;;
37517;SDS011;23366;52.498;13.446;2023-09-07T06:18:00;4.10;;;2.75;;
37517;SDS011;23366;52.498;13.446;2023-09-07T06:20:25;3.92;;;2.30;;
37517;SDS011;23366;52.498;13.446;2023-09-07T06:22:51;4.55;;;2.28;;
37517;SDS011;23366;52.498;13.446;2023-09-07T06:25:16;6.07;;;2.53;;
37517;SDS011;23366;52.498;13.446;2023-09-07T06:27:42;4.32;;;2.20;;
37517;SDS011;23366;52.498;13.446;2023-09-07T06:30:08;3.10;;;2.53;;
37517;SDS011;23366;52.498;13.446;2023-09-07T06:32:34;6.70;;;2.95;;
37517;SDS011;23366;52.498;13.446;2023-09-07T06:35:00;3.60;;;2.55;;
37517;SDS011;23366;52.498;13.446;2023-09-07T06:37:25;3.03;;;2.45;;
37517;SDS011;23366;52.498;13.446;2023-09-07T06:39:51;6.50;;;2.20;;
37517;SDS011;23366;52.498;13.446;2023-09-07T06:42:16;3.95;;;2.35;;
37517;SDS011;23366;52.498;13.446;2023-09-07T06:44:42;4.38;;;2.30;;
37517;SDS011;23366;52.498;13.446;2023-09-07T06:47:08;4.43;;;2.63;;
37517;SDS011;23366;52.498;13.446;2023-09-07T06:49:33;5.20;;;3.92;;
37517;SDS011;23366;52.498;13.446;2023-09-07T06:51:59;4.75;;;3.05;;
37517;SDS011;23366;52.498;13.446;2023-09-07T06:54:25;3.88;;;2.00;;
37517;SDS011;23366;52.498;13.446;2023-09-07T06:56:52;3.90;;;2.38;;
37517;SDS011;23366;52.498;13.446;2023-09-07T06:59:17;2.92;;;2.05;;
37517;SDS011;23366;52.498;13.446;2023-09-07T07:01:43;3.15;;;2.28;;
37517;SDS011;23366;52.498;13.446;2023-09-07T07:04:08;5.22;;;2.10;;
37517;SDS011;23366;52.498;13.446;2023-09-07T07:06:34;3.03;;;1.90;;
37517;SDS011;23366;52.498;13.446;2023-09-07T07:09:00;4.15;;;2.67;;
37517;SDS011;23366;52.498;13.446;2023-09-07T07:11:25;3.17;;;2.00;;
37517;SDS011;23366;52.498;13.446;2023-09-07T07:13:51;3.65;;;2.40;;
37517;SDS011;23366;52.498;13.446;2023-09-07T07:16:16;3.40;;;2.10;;
37517;SDS011;23366;52.498;13.446;2023-09-07T07:18:42;3.03;;;2.20;;
37517;SDS011;23366;52.498;13.446;2023-09-07T07:21:07;3.15;;;2.10;;
37517;SDS011;23366;52.498;13.446;2023-09-07T07:23:34;4.72;;;2.10;;
37517;SDS011;23366;52.498;13.446;2023-09-07T07:25:59;3.90;;;2.63;;
37517;SDS011;23366;52.498;13.446;2023-09-07T07:28:25;6.80;;;2.70;;
37517;SDS011;23366;52.498;13.446;2023-09-07T07:30:50;2.78;;;1.98;;
37517;SDS011;23366;52.498;13.446;2023-09-07T07:33:18;6.63;;;2.30;;
37517;SDS011;23366;52.498;13.446;2023-09-07T07:35:44;2.13;;;1.58;;
37517;SDS011;23366;52.498;13.446;2023-09-07T07:38:10;3.40;;;1.77;;
37517;SDS011;23366;52.498;13.446;2023-09-07T07:40:38;2.35;;;1.90;;
37517;SDS011;23366;52.498;13.446;2023-09-07T07:43:04;6.20;;;2.55;;
37517;SDS011;23366;52.498;13.446;2023-09-07T07:45:29;4.60;;;2.05;;
37517;SDS011;23366;52.498;13.446;2023-09-07T07:47:55;3.80;;;2.00;;
37517;SDS011;23366;52.498;13.446;2023-09-07T07:50:20;2.92;;;2.08;;
37517;SDS011;23366;52.498;13.446;2023-09-07T07:52:45;2.50;;;1.77;;
37517;SDS011;23366;52.498;13.446;2023-09-07T07:55:11;2.50;;;1.70;;
37517;SDS011;23366;52.498;13.446;2023-09-07T07:57:37;3.45;;;2.17;;
37517;SDS011;23366;52.498;13.446;2023-09-07T08:00:03;4.18;;;2.03;;
37517;SDS011;23366;52.498;13.446;2023-09-07T08:02:29;2.60;;;2.25;;
37517;SDS011;23366;52.498;13.446;2023-09-07T08:04:55;3.72;;;1.98;;
37517;SDS011;23366;52.498;13.446;2023-09-07T08:07:21;2.53;;;1.80;;
37517;SDS011;23366;52.498;13.446;2023-09-07T08:09:46;2.58;;;1.67;;
37517;SDS011;23366;52.498;13.446;2023-09-07T08:12:12;2.92;;;1.58;;
37517;SDS011;23366;52.498;13.446;2023-09-07T08:14:37;10.27;;;1.77;;
37517;SDS011;23366;52.498;13.446;2023-09-07T08:17:03;3.75;;;2.17;;
37517;SDS011;23366;52.498;13.446;2023-09-07T08:19:28;1.95;;;1.58;;
37517;SDS011;23366;52.498;13.446;2023-09-07T08:21:54;2.35;;;1.67;;
37517;SDS011;23366;52.498;13.446;2023-09-07T08:24:20;3.67;;;1.90;;
37517;SDS011;23366;52.498;13.446;2023-09-07T08:26:45;3.25;;;2.25;;
37517;SDS011;23366;52.498;13.446;2023-09-07T08:29:14;3.47;;;1.77;;
37517;SDS011;23366;52.498;13.446;2023-09-07T08:31:40;4.47;;;2.10;;
37517;SDS011;23366;52.498;13.446;2023-09-07T08:34:06;2.58;;;1.73;;
37517;SDS011;23366;52.498;13.446;2023-09-07T08:36:36;3.28;;;1.85;;
37517;SDS011;23366;52.498;13.446;2023-09-07T08:39:02;2.22;;;1.73;;
37517;SDS011;23366;52.498;13.446;2023-09-07T08:41:31;1.70;;;1.43;;
37517;SDS011;23366;52.498;13.446;2023-09-07T08:43:57;1.77;;;1.52;;
37517;SDS011;23366;52.498;13.446;2023-09-07T08:46:24;2.35;;;1.23;;
37517;SDS011;23366;52.498;13.446;2023-09-07T08:48:50;2.92;;;1.70;;
37517;SDS011;23366;52.498;13.446;2023-09-07T08:51:17;2.92;;;2.05;;
37517;SDS011;23366;52.498;13.446;2023-09-07T08:53:44;2.08;;;1.35;;
37517;SDS011;23366;52.498;13.446;2023-09-07T08:56:11;4.47;;;2.65;;
37517;SDS011;23366;52.498;13.446;2023-09-07T08:58:37;4.85;;;2.10;;
37517;SDS011;23366;52.498;13.446;2023-09-07T09:01:03;2.25;;;1.65;;
37517;SDS011;23366;52.498;13.446;2023-09-07T09:03:28;2.80;;;1.83;;
37517;SDS011;23366;52.498;13.446;2023-09-07T09:05:55;3.35;;;1.75;;
37517;SDS011;23366;52.498;13.446;2023-09-07T09:08:21;3.95;;;1.40;;
37517;SDS011;23366;52.498;13.446;2023-09-07T09:10:49;3.25;;;1.65;;
37517;SDS011;23366;52.498;13.446;2023-09-07T09:13:28;3.42;;;2.28;;
37517;SDS011;23366;52.498;13.446;2023-09-07T09:15:58;2.67;;;1.77;;
37517;SDS011;23366;52.498;13.446;2023-09-07T09:18:29;3.33;;;1.63;;
37517;SDS011;23366;52.498;13.446;2023-09-07T09:20:55;7.68;;;2.20;;
37517;SDS011;23366;52.498;13.446;2023-09-07T09:23:20;3.05;;;2.13;;
37517;SDS011;23366;52.498;13.446;2023-09-07T09:25:49;2.80;;;2.25;;
37517;SDS011;23366;52.498;13.446;2023-09-07T09:28:15;4.13;;;2.15;;
37517;SDS011;23366;52.498;13.446;2023-09-07T09:30:41;6.50;;;2.13;;
37517;SDS011;23366;52.498;13.446;2023-09-07T09:33:10;4.13;;;2.15;;
37517;SDS011;23366;52.498;13.446;2023-09-07T09:35:37;3.60;;;2.55;;
37517;SDS011;23366;52.498;13.446;2023-09-07T09:38:05;2.85;;;1.85;;
37517;SDS011;23366;52.498;13.446;2023-09-07T09:40:31;4.35;;;2.45;;
37517;SDS011;23366;52.498;13.446;2023-09-07T09:42:59;2.95;;;2.30;;
37517;SDS011;23366;52.498;13.446;2023-09-07T09:45:27;4.60;;;2.92;;
37517;SDS011;23366;52.498;13.446;2023-09-07T09:47:53;2.92;;;2.33;;
37517;SDS011;23366;52.498;13.446;2023-09-07T09:50:20;5.30;;;2.80;;
37517;SDS011;23366;52.498;13.446;2023-09-07T09:52:47;2.22;;;1.80;;
37517;SDS011;23366;52.498;13.446;2023-09-07T09:55:13;3.67;;;2.45;;
37517;SDS011;23366;52.498;13.446;2023-09-07T09:57:40;3.28;;;2.70;;
37517;SDS011;23366;52.498;13.446;2023-09-07T10:00:06;3.33;;;2.10;;
37517;SDS011;23366;52.498;13.446;2023-09-07T10:03:06;5.03;;;1.90;;
37517;SDS011;23366;52.498;13.446;2023-09-07T10:05:36;2.90;;;1.85;;
37517;SDS011;23366;52.498;13.446;2023-09-07T10:08:07;2.70;;;1.98;;
37517;SDS011;23366;52.498;13.446;2023-09-07T10:10:35;7.03;;;2.28;;
37517;SDS011;23366;52.498;13.446;2023-09-07T10:13:01;3.65;;;2.20;;
37517;SDS011;23366;52.498;13.446;2023-09-07T10:15:27;5.45;;;2.22;;
37517;SDS011;23366;52.498;13.446;2023-09-07T10:20:58;2.95;;;1.70;;
37517;SDS011;23366;52.498;13.446;2023-09-07T10:23:37;4.60;;;2.80;;
37517;SDS011;23366;52.498;13.446;2023-09-07T10:26:04;3.22;;;2.70;;
37517;SDS011;23366;52.498;13.446;2023-09-07T10:28:34;5.10;;;2.90;;
37517;SDS011;23366;52.498;13.446;2023-09-07T10:31:04;2.22;;;1.52;;
37517;SDS011;23366;52.498;13.446;2023-09-07T10:33:34;3.63;;;2.00;;
37517;SDS011;23366;52.498;13.446;2023-09-07T10:36:03;3.20;;;1.98;;
37517;SDS011;23366;52.498;13.446;2023-09-07T10:38:30;1.85;;;1.48;;
37517;SDS011;23366;52.498;13.446;2023-09-07T10:40:57;2.97;;;2.10;;
37517;SDS011;23366;52.498;13.446;2023-09-07T10:43:25;2.33;;;1.75;;
37517;SDS011;23366;52.498;13.446;2023-09-07T10:45:53;5.10;;;3.25;;
37517;SDS011;23366;52.498;13.446;2023-09-07T10:48:19;2.72;;;1.63;;
37517;SDS011;23366;52.498;13.446;2023-09-07T10:50:45;5.35;;;2.63;;
37517;SDS011;23366;52.498;13.446;2023-09-07T10:53:12;4.40;;;2.10;;
37517;SDS011;23366;52.498;13.446;2023-09-07T10:55:38;2.95;;;2.22;;
37517;SDS011;23366;52.498;13.446;2023-09-07T10:58:05;2.88;;;1.85;;
37517;SDS011;23366;52.498;13.446;2023-09-07T11:00:31;4.00;;;1.88;;
37517;SDS011;23366;52.498;13.446;2023-09-07T11:02:56;3.42;;;2.35;;
37517;SDS011;23366;52.498;13.446;2023-09-07T11:05:22;4.05;;;1.67;;
37517;SDS011;23366;52.498;13.446;2023-09-07T11:07:47;2.15;;;1.48;;
37517;SDS011;23366;52.498;13.446;2023-09-07T11:10:13;2.20;;;1.23;;
37517;SDS011;23366;52.498;13.446;2023-09-07T11:12:39;2.33;;;1.65;;
37517;SDS011;23366;52.498;13.446;2023-09-07T11:15:08;3.50;;;1.88;;
37517;SDS011;23366;52.498;13.446;2023-09-07T11:17:36;4.05;;;1.45;;
37517;SDS011;23366;52.498;13.446;2023-09-07T11:20:04;2.60;;;1.70;;
37517;SDS011;23366;52.498;13.446;2023-09-07T11:22:31;3.05;;;1.70;;
37517;SDS011;23366;52.498;13.446;2023-09-07T11:24:57;2.58;;;1.88;;
37517;SDS011;23366;52.498;13.446;2023-09-07T11:27:25;3.42;;;1.45;;
37517;SDS011;23366;52.498;13.446;2023-09-07T11:29:55;2.38;;;1.92;;
37517;SDS011;23366;52.498;13.446;2023-09-07T11:32:21;2.30;;;1.55;;
37517;SDS011;23366;52.498;13.446;2023-09-07T11:34:48;1.58;;;1.27;;
37517;SDS011;23366;52.498;13.446;2023-09-07T11:37:14;2.25;;;1.65;;
37517;SDS011;23366;52.498;13.446;2023-09-07T11:39:40;2.08;;;1.60;;
37517;SDS011;23366;52.498;13.446;2023-09-07T11:42:05;2.22;;;1.27;;
37517;SDS011;23366;52.498;13.446;2023-09-07T11:44:31;2.92;;;1.35;;
37517;SDS011;23366;52.498;13.446;2023-09-07T11:46:56;2.13;;;1.80;;
37517;SDS011;23366;52.498;13.446;2023-09-07T11:49:21;3.13;;;1.23;;
37517;SDS011;23366;52.498;13.446;2023-09-07T11:51:47;2.45;;;1.50;;
37517;SDS011;23366;52.498;13.446;2023-09-07T11:54:13;2.42;;;1.90;;
37517;SDS011;23366;52.498;13.446;2023-09-07T11:56:38;1.08;;;0.95;;
37517;SDS011;23366;52.498;13.446;2023-09-07T11:59:07;2.08;;;1.25;;
37517;SDS011;23366;52.498;13.446;2023-09-07T12:01:34;2.53;;;1.38;;
37517;SDS011;23366;52.498;13.446;2023-09-07T12:03:59;2.05;;;1.42;;
37517;SDS011;23366;52.498;13.446;2023-09-07T12:06:25;2.38;;;1.63;;
37517;SDS011;23366;52.498;13.446;2023-09-07T12:09:04;2.80;;;1.85;;
37517;SDS011;23366;52.498;13.446;2023-09-07T12:11:34;3.33;;;1.92;;
37517;SDS011;23366;52.498;13.446;2023-09-07T12:14:00;5.28;;;1.88;;
37517;SDS011;23366;52.498;13.446;2023-09-07T12:16:25;3.63;;;2.00;;
37517;SDS011;23366;52.498;13.446;2023-09-07T12:18:51;2.67;;;1.80;;
37517;SDS011;23366;52.498;13.446;2023-09-07T12:21:17;4.15;;;1.73;;
37517;SDS011;23366;52.498;13.446;2023-09-07T12:23:42;2.17;;;1.52;;
37517;SDS011;23366;52.498;13.446;2023-09-07T12:26:08;1.98;;;1.65;;
37517;SDS011;23366;52.498;13.446;2023-09-07T12:28:33;3.60;;;1.60;;
37517;SDS011;23366;52.498;13.446;2023-09-07T12:30:59;2.42;;;1.30;;
37517;SDS011;23366;52.498;13.446;2023-09-07T12:33:24;3.17;;;1.80;;
37517;SDS011;23366;52.498;13.446;2023-09-07T12:35:50;3.88;;;1.90;;
37517;SDS011;23366;52.498;13.446;2023-09-07T12:38:16;2.55;;;1.95;;
37517;SDS011;23366;52.498;13.446;2023-09-07T12:40:47;2.58;;;1.70;;
37517;SDS011;23366;52.498;13.446;2023-09-07T12:43:12;3.65;;;2.45;;
37517;SDS011;23366;52.498;13.446;2023-09-07T12:45:38;3.65;;;1.90;;
37517;SDS011;23366;52.498;13.446;2023-09-07T12:48:03;3.35;;;1.70;;
37517;SDS011;23366;52.498;13.446;2023-09-07T12:50:29;3.40;;;2.35;;
37517;SDS011;23366;52.498;13.446;2023-09-07T12:52:55;3.22;;;1.55;;
37517;SDS011;23366;52.498;13.446;2023-09-07T12:55:20;3.90;;;1.98;;
37517;SDS011;23366;52.498;13.446;2023-09-07T12:57:46;3.10;;;1.70;;
37517;SDS011;23366;52.498;13.446;2023-09-07T13:00:12;2.67;;;2.00;;
37517;SDS011;23366;52.498;13.446;2023-09-07T13:02:38;3.90;;;1.88;;
37517;SDS011;23366;52.498;13.446;2023-09-07T13:05:04;2.58;;;1.65;;
37517;SDS011;23366;52.498;13.446;2023-09-07T13:07:30;13.30;;;3.22;;
37517;SDS011;23366;52.498;13.446;2023-09-07T13:09:57;3.55;;;1.90;;
37517;SDS011;23366;52.498;13.446;2023-09-07T13:12:23;3.38;;;2.50;;
37517;SDS011;23366;52.498;13.446;2023-09-07T13:14:48;6.15;;;2.70;;
37517;SDS011;23366;52.498;13.446;2023-09-07T13:17:14;5.97;;;2.05;;
37517;SDS011;23366;52.498;13.446;2023-09-07T13:19:39;6.07;;;3.03;;
37517;SDS011;23366;52.498;13.446;2023-09-07T13:22:05;5.15;;;2.55;;
37517;SDS011;23366;52.498;13.446;2023-09-07T13:24:32;5.78;;;2.58;;
37517;SDS011;23366;52.498;13.446;2023-09-07T13:26:58;2.22;;;1.50;;
37517;SDS011;23366;52.498;13.446;2023-09-07T13:29:23;3.00;;;1.73;;
37517;SDS011;23366;52.498;13.446;2023-09-07T13:31:49;2.65;;;1.60;;
37517;SDS011;23366;52.498;13.446;2023-09-07T13:34:17;2.95;;;1.50;;
37517;SDS011;23366;52.498;13.446;2023-09-07T13:36:43;3.88;;;1.65;;
37517;SDS011;23366;52.498;13.446;2023-09-07T13:39:08;2.95;;;2.20;;
37517;SDS011;23366;52.498;13.446;2023-09-07T13:41:34;2.72;;;1.75;;
37517;SDS011;23366;52.498;13.446;2023-09-07T13:43:59;3.67;;;1.70;;
37517;SDS011;23366;52.498;13.446;2023-09-07T13:46:25;4.65;;;1.77;;
37517;SDS011;23366;52.498;13.446;2023-09-07T13:48:51;4.22;;;1.73;;
37517;SDS011;23366;52.498;13.446;2023-09-07T13:51:17;3.80;;;1.67;;
37517;SDS011;23366;52.498;13.446;2023-09-07T13:53:42;3.08;;;2.15;;
37517;SDS011;23366;52.498;13.446;2023-09-07T13:56:08;3.95;;;2.28;;
37517;SDS011;23366;52.498;13.446;2023-09-07T13:58:33;3.75;;;2.35;;
37517;SDS011;23366;52.498;13.446;2023-09-07T14:00:59;4.00;;;2.30;;
37517;SDS011;23366;52.498;13.446;2023-09-07T14:03:24;3.65;;;2.10;;
37517;SDS011;23366;52.498;13.446;2023-09-07T14:05:50;4.90;;;2.85;;
37517;SDS011;23366;52.498;13.446;2023-09-07T14:08:15;3.70;;;1.98;;
37517;SDS011;23366;52.498;13.446;2023-09-07T14:10:42;20.50;;;3.90;;
37517;SDS011;23366;52.498;13.446;2023-09-07T14:13:07;12.68;;;3.25;;
37517;SDS011;23366;52.498;13.446;2023-09-07T14:15:32;3.58;;;2.20;;
37517;SDS011;23366;52.498;13.446;2023-09-07T14:17:58;2.95;;;1.77;;
37517;SDS011;23366;52.498;13.446;2023-09-07T14:20:25;6.53;;;2.72;;
37517;SDS011;23366;52.498;13.446;2023-09-07T14:22:51;15.77;;;3.50;;
37517;SDS011;23366;52.498;13.446;2023-09-07T14:25:16;13.23;;;4.43;;
37517;SDS011;23366;52.498;13.446;2023-09-07T14:27:42;14.68;;;4.35;;
37517;SDS011;23366;52.498;13.446;2023-09-07T14:30:07;7.75;;;2.50;;